Hlavní strana
METAR-TAF:

METAR-TAF

Letiště :

Treviso, Itálie

zeměpisná šířka: 45-41N, zeměpisná délka: 012-06E, výška: 45 m

Aktuální stav počasí

Zpráva byla vytvořena před 1 hodinou a 10 minutami, v 08:55 UTC
Bezvětří
Teplota 3°C
Vlhkost vzduchu 87%
Tlak 1025 hPa
Viditelnost 10 km a více
Oblačno až skoro zataženo ve výšce 7000 ft

METAR: LIPS 190855Z 00000KT 9999 BKN070 03/01 Q1025 RMK BKN VIS MIN 9999 WIND THR26 00000KT WIND THR08 00000KT BLU

Čas: 11:05 (10:05 UTC)

Předpověď počasí

Zpráva byla vytvořena před 1 hodinou a 55 minutami, v 08:10 UTC
Předpověď platná od 19 v 09 UTC do 19 v 18 UTC
Severoseverozápadní vítr 5 kt
Viditelnost 10 km a více
Oblačno až skoro zataženo ve výšce 7000 ft
Změna
od 19 v 15 UTC do 19 v 17 UTC
Severovýchodní vítr 5 kt
Viditelnost 10 km a více
Polojasno ve výšce 2000 ft
Oblačno až skoro zataženo ve výšce 5000 ft

TAF: LIPS 190810Z 1909/1918 34005KT 9999 BKN070 BECMG 1915/1917 04005KT 9999 SCT020 BKN050

Stav a předpovědi počasí z více než 4 000 letišť (zprávy METAR a TAF).

Červené a žluté tečky na mapě představují dostupné meteorologické stanice.

Když kurzor umístíte na tečku, zobrazí se název stanice.

Pak kliknutím zobrazíte stav a předpověď počasí.

Chcete-li změnit mapu, kliknutím na zelené tlačítko se znaménkem +mapu přiblížíte, kliknutím na zelené tlačítko se znaménkem – mapu oddálíte a kliknutím na zelené šipky přejdete na sousední mapy.


METAR-TAF: